createdAt,value
2022-11-05T00:01:46.668Z,4.78
2022-11-05T00:04:31.899Z,5.55
2022-11-05T00:07:24.073Z,4.88
2022-11-05T00:10:01.388Z,5.25
2022-11-05T00:12:53.877Z,5.27
2022-11-05T00:15:38.626Z,10.20
2022-11-05T00:18:05.157Z,5.63
2022-11-05T00:20:31.666Z,6.65
2022-11-05T00:23:24.276Z,7.15
2022-11-05T00:26:11.416Z,5.47
2022-11-05T00:28:43.873Z,8.85
2022-11-05T00:31:12.935Z,5.72
2022-11-05T00:33:41.111Z,9.13
2022-11-05T00:36:09.781Z,7.68
2022-11-05T00:38:36.615Z,8.37
2022-11-05T00:41:03.357Z,7.45
2022-11-05T00:43:48.628Z,11.35
2022-11-05T00:46:15.096Z,8.98
2022-11-05T00:49:00.008Z,7.65
2022-11-05T00:51:26.553Z,7.30
2022-11-05T00:53:52.986Z,8.68
2022-11-05T00:56:19.469Z,7.15
2022-11-05T00:58:45.991Z,11.38
2022-11-05T01:01:12.598Z,9.25
2022-11-05T01:03:39.953Z,9.27
2022-11-05T01:06:15.752Z,7.85
2022-11-05T01:08:44.448Z,7.38
2022-11-05T01:11:32.795Z,7.93
2022-11-05T01:14:05.108Z,8.88
2022-11-05T01:16:32.175Z,8.33
2022-11-05T01:18:58.677Z,8.38
2022-11-05T01:21:25.151Z,7.22
2022-11-05T01:23:51.696Z,9.15
2022-11-05T01:26:18.204Z,7.10
2022-11-05T01:28:44.953Z,9.53
2022-11-05T01:31:14.584Z,10.48
2022-11-05T01:33:44.839Z,12.65
2022-11-05T01:36:11.489Z,9.43
2022-11-05T01:38:38.107Z,10.18
2022-11-05T01:41:05.267Z,9.33
2022-11-05T01:43:56.449Z,7.28
2022-11-05T01:46:28.394Z,7.63
2022-11-05T01:49:02.884Z,13.73
2022-11-05T01:51:30.840Z,6.72
2022-11-05T01:54:02.738Z,15.20
2022-11-05T01:56:40.864Z,7.68
2022-11-05T01:59:14.216Z,9.57
2022-11-05T02:01:40.912Z,8.77
2022-11-05T02:04:11.576Z,10.25
2022-11-05T02:06:46.269Z,8.90
2022-11-05T02:09:17.853Z,9.63
2022-11-05T02:11:44.298Z,9.18
2022-11-05T02:14:10.725Z,10.30
2022-11-05T02:16:52.765Z,9.85
2022-11-05T02:19:53.230Z,9.60
2022-11-05T02:23:07.840Z,9.23
2022-11-05T02:25:56.048Z,8.02
2022-11-05T02:28:51.230Z,13.25
2022-11-05T02:31:36.249Z,8.13
2022-11-05T02:34:33.595Z,9.27
2022-11-05T02:37:23.164Z,9.13
2022-11-05T02:40:02.259Z,8.55
2022-11-05T02:42:47.207Z,8.15
2022-11-05T02:45:42.072Z,8.63
2022-11-05T02:48:17.557Z,10.83
2022-11-05T02:51:24.363Z,9.07
2022-11-05T02:53:57.936Z,10.30
2022-11-05T02:56:30.785Z,8.32
2022-11-05T02:58:57.262Z,9.10
2022-11-05T03:01:23.956Z,8.47
2022-11-05T03:04:00.676Z,10.65
2022-11-05T03:06:56.112Z,9.80
2022-11-05T03:09:40.890Z,9.52
2022-11-05T03:12:26.260Z,9.38
2022-11-05T03:15:27.247Z,10.10
2022-11-05T03:18:07.033Z,9.43
2022-11-05T03:20:48.659Z,7.60
2022-11-05T03:23:20.459Z,10.00
2022-11-05T03:25:51.508Z,12.48
2022-11-05T03:28:22.612Z,13.43
2022-11-05T03:30:51.533Z,10.23
2022-11-05T03:33:22.268Z,12.95
2022-11-05T03:35:53.902Z,10.95
2022-11-05T03:38:25.734Z,11.40
2022-11-05T03:40:56.995Z,12.50
2022-11-05T03:43:28.539Z,12.75
2022-11-05T03:46:00.629Z,14.60
2022-11-05T03:48:30.543Z,12.48
2022-11-05T03:51:06.617Z,10.25
2022-11-05T03:53:40.959Z,12.67
2022-11-05T03:56:20.877Z,14.77
2022-11-05T03:58:48.366Z,12.43
2022-11-05T04:01:15.732Z,11.82
2022-11-05T04:03:42.427Z,16.30
2022-11-05T04:06:29.217Z,16.80
2022-11-05T04:09:14.101Z,13.82
2022-11-05T04:11:59.159Z,16.20
2022-11-05T04:14:26.246Z,15.40
2022-11-05T04:17:09.039Z,15.65
2022-11-05T04:19:59.420Z,16.77
2022-11-05T04:22:46.863Z,17.23
2022-11-05T04:25:14.354Z,16.58
2022-11-05T04:27:41.458Z,18.67
2022-11-05T04:30:20.722Z,18.95
2022-11-05T04:32:59.109Z,21.63
2022-11-05T04:35:26.927Z,21.25
2022-11-05T04:37:53.787Z,21.48
2022-11-05T04:40:20.412Z,26.80
2022-11-05T04:42:46.932Z,26.40
2022-11-05T04:45:13.537Z,25.83
2022-11-05T04:47:40.239Z,22.73
2022-11-05T04:50:06.843Z,22.95
2022-11-05T04:52:33.343Z,16.65
2022-11-05T04:54:59.859Z,15.68
2022-11-05T04:57:26.320Z,18.23
2022-11-05T04:59:54.972Z,21.73
2022-11-05T05:02:21.675Z,18.38
2022-11-05T05:04:48.203Z,16.17
2022-11-05T05:07:14.663Z,18.88
2022-11-05T05:09:41.146Z,16.50
2022-11-05T05:12:07.956Z,19.33
2022-11-05T05:14:34.814Z,21.38
2022-11-05T05:17:01.284Z,25.58
2022-11-05T05:19:27.830Z,21.98
2022-11-05T05:21:54.276Z,21.10
2022-11-05T05:24:21.201Z,23.83
2022-11-05T05:26:49.601Z,23.30
2022-11-05T05:29:17.444Z,28.23
2022-11-05T05:31:44.334Z,29.75
2022-11-05T05:34:12.820Z,25.53
2022-11-05T05:36:39.890Z,31.95
2022-11-05T05:39:07.692Z,31.35
2022-11-05T05:41:34.333Z,31.85
2022-11-05T05:44:00.826Z,35.38
2022-11-05T05:46:27.342Z,37.50
2022-11-05T05:48:53.990Z,35.88
2022-11-05T05:51:20.554Z,37.08
2022-11-05T05:53:47.101Z,33.58
2022-11-05T05:56:15.109Z,38.97
2022-11-05T05:58:41.982Z,36.00
2022-11-05T06:01:18.380Z,34.50
2022-11-05T06:03:46.008Z,41.58
2022-11-05T06:06:13.478Z,36.70
2022-11-05T06:08:40.259Z,35.00
2022-11-05T06:11:07.602Z,35.70
2022-11-05T06:13:37.473Z,39.30
2022-11-05T06:16:06.425Z,43.25
2022-11-05T06:18:34.074Z,38.53
2022-11-05T06:21:02.261Z,39.20
2022-11-05T06:23:31.343Z,38.53
2022-11-05T06:26:02.326Z,45.95
2022-11-05T06:28:29.585Z,37.42
2022-11-05T06:30:59.792Z,43.05
2022-11-05T06:33:26.880Z,37.65
2022-11-05T06:35:54.168Z,37.37
2022-11-05T06:38:21.053Z,39.40
2022-11-05T06:40:47.545Z,38.70
2022-11-05T06:43:14.474Z,37.17
2022-11-05T06:45:41.203Z,37.97
2022-11-05T06:48:09.223Z,38.63
2022-11-05T06:50:35.699Z,35.63
2022-11-05T06:53:03.688Z,39.40
2022-11-05T06:55:31.323Z,40.75
2022-11-05T06:57:58.047Z,38.20
2022-11-05T07:00:24.737Z,36.80
2022-11-05T07:02:51.333Z,39.20
2022-11-05T07:05:18.047Z,32.53
2022-11-05T07:07:45.472Z,43.00
2022-11-05T07:10:14.672Z,38.80
2022-11-05T07:12:41.314Z,36.37
2022-11-05T07:15:08.530Z,36.20
2022-11-05T07:17:35.021Z,32.03
2022-11-05T07:20:01.491Z,32.38
2022-11-05T07:22:27.934Z,29.77
2022-11-05T07:25:00.441Z,31.87
2022-11-05T07:27:27.205Z,28.50
2022-11-05T07:29:53.660Z,27.38
2022-11-05T07:32:20.161Z,40.55
2022-11-05T07:34:46.644Z,30.65
2022-11-05T07:37:13.448Z,33.03
2022-11-05T07:39:39.944Z,29.00
2022-11-05T07:42:13.651Z,33.17
2022-11-05T07:44:44.791Z,28.15
2022-11-05T07:47:12.083Z,25.42
2022-11-05T07:49:39.326Z,26.43
2022-11-05T07:52:05.991Z,18.55
2022-11-05T07:54:32.435Z,16.98
2022-11-05T07:57:00.157Z,16.50
2022-11-05T07:59:27.284Z,19.38
2022-11-05T08:01:54.250Z,20.33
2022-11-05T08:04:20.966Z,16.58
2022-11-05T08:06:48.822Z,17.60
2022-11-05T08:09:15.449Z,32.30
2022-11-05T08:11:41.986Z,21.70
2022-11-05T08:14:08.501Z,22.43
2022-11-05T08:16:34.988Z,19.23
2022-11-05T08:19:04.582Z,17.65
2022-11-05T08:21:33.390Z,20.20
2022-11-05T08:24:00.149Z,17.08
2022-11-05T08:26:29.724Z,15.37
2022-11-05T08:29:00.254Z,16.58
2022-11-05T08:31:27.703Z,14.25
2022-11-05T08:33:59.722Z,12.68
2022-11-05T08:36:28.857Z,12.75
2022-11-05T08:38:55.591Z,18.90
2022-11-05T08:41:22.055Z,13.07
2022-11-05T08:43:54.234Z,14.50
2022-11-05T08:46:23.545Z,13.52
2022-11-05T08:48:50.239Z,10.43
2022-11-05T08:51:17.482Z,9.40
2022-11-05T08:53:47.010Z,11.52
2022-11-05T08:56:13.530Z,11.75
2022-11-05T08:58:40.441Z,9.63
2022-11-05T09:01:07.252Z,14.45
2022-11-05T09:03:33.787Z,13.20
2022-11-05T09:06:00.614Z,16.95
2022-11-05T09:08:31.030Z,13.45
2022-11-05T09:10:57.599Z,14.52
2022-11-05T09:13:25.029Z,12.27
2022-11-05T09:15:51.946Z,10.60
2022-11-05T09:18:19.776Z,14.88
2022-11-05T09:20:46.364Z,13.85
2022-11-05T09:23:16.930Z,10.75
2022-11-05T09:25:44.770Z,13.48
2022-11-05T09:28:20.672Z,11.90
2022-11-05T09:30:50.068Z,9.63
2022-11-05T09:33:19.004Z,13.45
2022-11-05T09:35:47.393Z,14.80
2022-11-05T09:38:14.309Z,15.70
2022-11-05T09:41:06.197Z,15.30
2022-11-05T09:43:49.814Z,14.57
2022-11-05T09:46:24.562Z,15.52
2022-11-05T09:49:07.186Z,14.90
2022-11-05T09:51:35.992Z,13.88
2022-11-05T09:54:03.819Z,20.80
2022-11-05T09:56:34.801Z,11.38
2022-11-05T09:59:24.166Z,13.43
2022-11-05T10:02:13.296Z,9.55
2022-11-05T10:04:43.113Z,14.57
2022-11-05T10:07:14.359Z,14.17
2022-11-05T10:09:47.823Z,11.95
2022-11-05T10:12:25.824Z,14.18
2022-11-05T10:15:03.297Z,15.43
2022-11-05T10:17:36.314Z,13.68
2022-11-05T10:20:26.318Z,12.13
2022-11-05T10:22:58.293Z,10.75
2022-11-05T10:25:36.788Z,13.63
2022-11-05T10:28:04.592Z,9.80
2022-11-05T10:30:31.492Z,13.30
2022-11-05T10:33:02.133Z,8.80
2022-11-05T10:35:31.475Z,8.32
2022-11-05T10:37:58.028Z,7.88
2022-11-05T10:40:43.655Z,8.75
2022-11-05T10:43:21.728Z,9.57
2022-11-05T10:46:21.353Z,10.37
2022-11-05T10:48:59.342Z,8.85
2022-11-05T10:51:26.250Z,12.50
2022-11-05T10:54:01.603Z,9.70
2022-11-05T10:56:32.936Z,11.75
2022-11-05T10:59:00.498Z,11.23
2022-11-05T11:01:28.380Z,11.05
2022-11-05T11:04:16.419Z,8.48
2022-11-05T11:06:54.599Z,10.05
2022-11-05T11:09:24.778Z,8.00
2022-11-05T11:12:16.903Z,11.50
2022-11-05T11:14:59.449Z,12.50
2022-11-05T11:17:31.244Z,9.57
2022-11-05T11:20:16.104Z,7.97
2022-11-05T11:22:42.628Z,12.85
2022-11-05T11:25:25.022Z,6.38
2022-11-05T11:27:53.056Z,7.03
2022-11-05T11:30:20.751Z,9.30
2022-11-05T11:32:48.790Z,7.07
2022-11-05T11:35:24.823Z,7.50
2022-11-05T11:37:57.025Z,10.32
2022-11-05T11:40:30.759Z,6.55
2022-11-05T11:43:01.520Z,6.70
2022-11-05T11:45:33.085Z,6.15
2022-11-05T11:48:05.008Z,6.50
2022-11-05T11:50:33.107Z,5.53
2022-11-05T11:53:21.736Z,3.28
2022-11-05T11:56:06.617Z,5.90
2022-11-05T11:58:43.171Z,2.95
2022-11-05T12:01:09.606Z,4.22
2022-11-05T12:03:47.975Z,2.13
2022-11-05T12:06:32.830Z,6.57
2022-11-05T12:09:14.029Z,4.93
2022-11-05T12:12:06.982Z,6.03
2022-11-05T12:14:58.787Z,6.97
2022-11-05T12:17:46.266Z,4.72
2022-11-05T12:20:26.000Z,4.95
2022-11-05T12:23:17.089Z,3.00
2022-11-05T12:26:17.879Z,3.83
2022-11-05T12:29:18.864Z,4.10
2022-11-05T12:31:48.939Z,3.35
2022-11-05T12:34:24.898Z,5.43
2022-11-05T12:36:54.325Z,2.03
2022-11-05T12:39:42.743Z,3.15
2022-11-05T12:42:34.186Z,2.97
2022-11-05T12:45:21.206Z,3.05
2022-11-05T12:48:06.264Z,5.47
2022-11-05T12:50:47.646Z,2.10
2022-11-05T12:53:29.042Z,7.32
2022-11-05T12:55:59.724Z,8.10
2022-11-05T12:58:31.166Z,3.72
2022-11-05T13:01:15.829Z,5.55
2022-11-05T13:03:52.224Z,3.07
2022-11-05T13:06:25.886Z,2.95
2022-11-05T13:09:17.924Z,3.85
2022-11-05T13:11:51.237Z,4.25
2022-11-05T13:14:22.943Z,4.97
2022-11-05T13:16:53.177Z,5.03
2022-11-05T13:19:37.748Z,5.45
2022-11-05T13:22:17.312Z,4.50
2022-11-05T13:24:49.423Z,4.35
2022-11-05T13:27:28.716Z,5.18
2022-11-05T13:30:06.253Z,5.90
2022-11-05T13:32:37.158Z,6.78
2022-11-05T13:35:07.760Z,4.60
2022-11-05T13:37:58.496Z,3.70
2022-11-05T13:40:46.787Z,4.97
2022-11-05T13:43:27.521Z,3.90
2022-11-05T13:46:32.156Z,4.40
2022-11-05T13:49:16.464Z,4.40
2022-11-05T13:51:48.392Z,5.47
2022-11-05T13:54:29.874Z,3.28
2022-11-05T13:57:16.187Z,6.77
2022-11-05T14:00:00.412Z,9.10
2022-11-05T14:02:40.664Z,7.55
2022-11-05T14:05:19.533Z,6.00
2022-11-05T14:07:47.182Z,6.88
2022-11-05T14:10:33.722Z,10.87
2022-11-05T14:13:14.073Z,7.82
2022-11-05T14:15:51.894Z,3.75
2022-11-05T14:18:34.656Z,4.57
2022-11-05T14:21:03.736Z,5.82
2022-11-05T14:23:30.692Z,4.80
2022-11-05T14:26:13.278Z,4.63
2022-11-05T14:29:11.250Z,8.73
2022-11-05T14:34:44.176Z,7.57
2022-11-05T14:37:10.629Z,4.77
2022-11-05T14:39:37.788Z,8.23
2022-11-05T14:42:12.049Z,4.15
2022-11-05T14:44:55.771Z,6.47
2022-11-05T14:47:25.587Z,4.38
2022-11-05T14:49:57.472Z,2.50
2022-11-05T14:52:24.119Z,3.00
2022-11-05T14:54:53.504Z,6.85
2022-11-05T14:57:41.924Z,2.90
2022-11-05T15:00:29.988Z,4.93
2022-11-05T15:03:02.268Z,11.80
2022-11-05T15:05:34.736Z,4.50
2022-11-05T15:08:28.917Z,3.05
2022-11-05T15:11:25.286Z,5.03
2022-11-05T15:13:54.613Z,2.10
2022-11-05T15:16:40.250Z,3.70
2022-11-05T15:19:17.728Z,3.63
2022-11-05T15:21:44.900Z,2.88
2022-11-05T15:24:14.798Z,2.40
2022-11-05T15:26:52.491Z,3.42
2022-11-05T15:29:24.344Z,1.83
2022-11-05T15:31:51.438Z,3.83
2022-11-05T15:34:24.268Z,3.28
2022-11-05T15:37:21.227Z,2.55
2022-11-05T15:39:50.239Z,4.72
2022-11-05T15:42:25.423Z,4.70
2022-11-05T15:44:54.608Z,4.25
2022-11-05T15:47:36.651Z,3.33
2022-11-05T15:50:14.908Z,5.50
2022-11-05T15:52:50.881Z,3.95
2022-11-05T15:55:24.070Z,6.17
2022-11-05T15:57:52.604Z,2.63
2022-11-05T16:00:25.067Z,5.65
2022-11-05T16:03:02.481Z,2.33
2022-11-05T16:05:33.402Z,2.60
2022-11-05T16:08:01.634Z,6.40
2022-11-05T16:10:34.709Z,4.93
2022-11-05T16:13:37.254Z,5.97
2022-11-05T16:16:24.820Z,3.60
2022-11-05T16:18:51.619Z,5.28
2022-11-05T16:21:22.558Z,5.33
2022-11-05T16:23:56.804Z,7.65
2022-11-05T16:29:29.602Z,2.85
2022-11-05T16:31:57.563Z,3.92
2022-11-05T16:34:28.507Z,2.53
2022-11-05T16:36:57.048Z,4.05
2022-11-05T16:39:23.933Z,4.97
2022-11-05T16:41:50.527Z,1.95
2022-11-05T16:44:17.284Z,3.47
2022-11-05T16:46:47.293Z,3.60
2022-11-05T16:49:14.553Z,2.88
2022-11-05T16:51:41.734Z,3.50
2022-11-05T16:54:08.658Z,4.40
2022-11-05T16:56:35.933Z,4.93
2022-11-05T16:59:03.472Z,4.87
2022-11-05T17:01:30.125Z,4.75
2022-11-05T17:03:56.718Z,4.25
2022-11-05T17:06:23.323Z,6.43
2022-11-05T17:08:49.863Z,9.95
2022-11-05T17:11:19.970Z,11.23
2022-11-05T17:13:47.141Z,4.10
2022-11-05T17:16:16.728Z,3.95
2022-11-05T17:18:43.713Z,5.20
2022-11-05T17:21:11.257Z,5.95
2022-11-05T17:23:38.059Z,7.20
2022-11-05T17:26:07.904Z,5.72
2022-11-05T17:28:35.065Z,10.13
2022-11-05T17:31:03.920Z,5.80
2022-11-05T17:33:30.602Z,5.63
2022-11-05T17:35:57.417Z,9.60
2022-11-05T17:38:25.554Z,7.40
2022-11-05T17:40:52.792Z,7.85
2022-11-05T17:43:20.317Z,5.78
2022-11-05T17:45:49.171Z,10.30
2022-11-05T17:48:16.704Z,8.47
2022-11-05T17:50:45.952Z,9.50
2022-11-05T17:53:13.787Z,6.65
2022-11-05T17:55:42.144Z,9.90
2022-11-05T17:58:08.780Z,9.30
2022-11-05T18:00:35.945Z,11.80
2022-11-05T18:03:02.841Z,11.15
2022-11-05T18:05:30.849Z,9.77
2022-11-05T18:07:58.035Z,11.77
2022-11-05T18:10:25.193Z,7.25
2022-11-05T18:12:52.057Z,12.67
2022-11-05T18:15:18.963Z,10.23
2022-11-05T18:17:46.285Z,13.32
2022-11-05T18:20:18.892Z,9.45
2022-11-05T18:22:48.844Z,8.27
2022-11-05T18:25:16.024Z,10.13
2022-11-05T18:27:42.603Z,8.93
2022-11-05T18:30:10.601Z,9.32
2022-11-05T18:32:37.102Z,19.67
2022-11-05T18:35:04.125Z,11.90
2022-11-05T18:37:30.682Z,8.70
2022-11-05T18:39:57.172Z,9.25
2022-11-05T18:42:24.575Z,10.93
2022-11-05T18:44:51.241Z,10.95
2022-11-05T18:47:17.828Z,11.32
2022-11-05T18:49:44.332Z,9.80
2022-11-05T18:52:10.913Z,16.70
2022-11-05T18:54:37.505Z,11.25
2022-11-05T18:57:04.038Z,10.45
2022-11-05T18:59:37.113Z,8.32
2022-11-05T19:02:06.618Z,16.70
2022-11-05T19:04:35.860Z,9.20
2022-11-05T19:07:05.088Z,12.70
2022-11-05T19:09:33.940Z,12.75
2022-11-05T19:12:01.184Z,13.32
2022-11-05T19:14:27.852Z,12.97
2022-11-05T19:16:54.540Z,12.70
2022-11-05T19:19:21.220Z,12.25
2022-11-05T19:21:47.720Z,12.27
2022-11-05T19:24:17.442Z,11.57
2022-11-05T19:26:44.718Z,13.53
2022-11-05T19:29:11.566Z,10.80
2022-11-05T19:31:38.302Z,12.75
2022-11-05T19:34:05.583Z,13.98
2022-11-05T19:36:33.535Z,12.38
2022-11-05T19:39:02.812Z,14.80
2022-11-05T19:41:29.535Z,10.68
2022-11-05T19:43:57.944Z,12.00
2022-11-05T19:46:25.211Z,13.90
2022-11-05T19:48:52.748Z,11.85
2022-11-05T19:51:23.074Z,12.93
2022-11-05T19:53:51.587Z,10.70
2022-11-05T19:56:21.129Z,10.93
2022-11-05T19:58:48.744Z,11.40
2022-11-05T20:01:16.753Z,12.50
2022-11-05T20:03:43.634Z,12.37
2022-11-05T20:06:16.282Z,10.40
2022-11-05T20:09:06.983Z,10.27
2022-11-05T20:11:29.710Z,12.98
2022-11-05T20:13:57.011Z,10.27
2022-11-05T20:16:29.462Z,9.53
2022-11-05T20:18:57.123Z,13.30
2022-11-05T20:21:23.624Z,8.80
2022-11-05T20:23:50.157Z,10.52
2022-11-05T20:26:16.771Z,10.25
2022-11-05T20:28:43.865Z,10.77
2022-11-05T20:31:13.417Z,9.45
2022-11-05T20:33:40.777Z,11.27
2022-11-05T20:36:10.281Z,10.45
2022-11-05T20:38:36.814Z,13.02
2022-11-05T20:41:11.657Z,10.13
2022-11-05T20:43:40.993Z,11.02
2022-11-05T20:46:08.970Z,12.38
2022-11-05T20:48:35.644Z,11.77
2022-11-05T20:51:07.788Z,13.18
2022-11-05T20:53:34.952Z,9.47
2022-11-05T20:56:06.682Z,7.75
2022-11-05T20:58:36.174Z,11.68
2022-11-05T21:01:04.275Z,7.82
2022-11-05T21:03:31.172Z,11.27
2022-11-05T21:06:00.792Z,11.00
2022-11-05T21:08:27.825Z,10.70
2022-11-05T21:10:55.211Z,10.85
2022-11-05T21:13:22.723Z,10.25
2022-11-05T21:16:00.884Z,13.33
2022-11-05T21:18:30.741Z,10.13
2022-11-05T21:20:57.807Z,16.20
2022-11-05T21:23:24.309Z,13.75
2022-11-05T21:25:51.376Z,8.50
2022-11-05T21:28:17.873Z,11.53
2022-11-05T21:30:45.897Z,9.95
2022-11-05T21:33:14.328Z,13.38
2022-11-05T21:35:45.996Z,14.75
2022-11-05T21:38:14.472Z,11.52
2022-11-05T21:40:41.314Z,15.40
2022-11-05T21:43:08.488Z,8.48
2022-11-05T21:45:37.476Z,11.00
2022-11-05T21:48:04.179Z,8.27
2022-11-05T21:50:49.393Z,9.88
2022-11-05T21:53:35.438Z,9.47
2022-11-05T21:56:35.481Z,10.70
2022-11-05T21:59:20.392Z,13.85
2022-11-05T22:01:47.007Z,10.82
2022-11-05T22:04:13.649Z,9.32
2022-11-05T22:06:40.222Z,7.70
2022-11-05T22:09:06.803Z,9.02
2022-11-05T22:11:36.779Z,10.88
2022-11-05T22:14:03.368Z,13.35
2022-11-05T22:16:29.884Z,9.90
2022-11-05T22:18:57.517Z,8.13
2022-11-05T22:21:24.101Z,10.35
2022-11-05T22:23:52.428Z,9.15
2022-11-05T22:26:19.345Z,11.68
2022-11-05T22:28:45.876Z,11.60
2022-11-05T22:31:16.489Z,11.13
2022-11-05T22:33:43.757Z,8.27
2022-11-05T22:36:10.626Z,11.50
2022-11-05T22:38:37.416Z,12.18
2022-11-05T22:41:13.140Z,11.30
2022-11-05T22:43:40.021Z,10.00
2022-11-05T22:46:12.403Z,6.93
2022-11-05T22:48:40.519Z,8.02
2022-11-05T22:51:09.756Z,11.10
2022-11-05T22:53:36.952Z,10.93
2022-11-05T22:56:05.304Z,11.07
2022-11-05T22:58:31.977Z,9.68
2022-11-05T23:00:58.996Z,10.43
2022-11-05T23:03:26.451Z,9.25
2022-11-05T23:06:01.422Z,7.43
2022-11-05T23:08:47.193Z,7.87
2022-11-05T23:11:35.305Z,7.57
2022-11-05T23:14:02.591Z,10.82
2022-11-05T23:16:48.106Z,7.90
2022-11-05T23:19:33.066Z,9.88
2022-11-05T23:22:18.495Z,10.40
2022-11-05T23:24:45.076Z,11.30
2022-11-05T23:27:11.556Z,8.63
2022-11-05T23:29:38.254Z,9.48
2022-11-05T23:32:23.348Z,7.82
2022-11-05T23:34:51.658Z,12.07
2022-11-05T23:37:37.637Z,10.20
2022-11-05T23:40:06.314Z,12.30
2022-11-05T23:42:51.448Z,10.25
2022-11-05T23:45:36.476Z,12.85
2022-11-05T23:48:18.760Z,7.03
2022-11-05T23:51:06.898Z,6.80
2022-11-05T23:53:35.950Z,13.45
2022-11-05T23:56:06.823Z,8.80
2022-11-05T23:58:33.740Z,10.60
